createdAt,value
2017-11-19T00:01:42.215Z,15.20
2017-11-19T00:03:44.886Z,16.17
2017-11-19T00:05:47.566Z,20.67
2017-11-19T00:07:50.243Z,13.20
2017-11-19T00:09:53.236Z,14.87
2017-11-19T00:11:55.910Z,14.67
2017-11-19T00:13:58.582Z,13.63
2017-11-19T00:16:01.401Z,11.73
2017-11-19T00:18:04.114Z,21.63
2017-11-19T00:20:07.594Z,19.23
2017-11-19T00:22:10.280Z,17.30
2017-11-19T00:24:13.859Z,20.30
2017-11-19T00:26:16.536Z,24.17
2017-11-19T00:28:19.190Z,17.77
2017-11-19T00:30:21.899Z,25.50
2017-11-19T00:32:25.384Z,19.77
2017-11-19T00:34:28.114Z,20.53
2017-11-19T00:36:30.815Z,22.57
2017-11-19T00:38:33.487Z,22.50
2017-11-19T00:40:36.235Z,21.67
2017-11-19T00:42:38.926Z,21.13
2017-11-19T00:44:41.579Z,13.73
2017-11-19T00:46:44.293Z,20.47
2017-11-19T00:48:47.074Z,14.67
2017-11-19T00:50:49.705Z,13.63
2017-11-19T00:52:52.372Z,21.57
2017-11-19T00:54:55.781Z,15.30
2017-11-19T00:56:58.470Z,10.73
2017-11-19T00:59:01.110Z,23.30
2017-11-19T01:01:04.558Z,19.47
2017-11-19T01:03:07.253Z,13.53
2017-11-19T01:05:21.801Z,15.50
2017-11-19T01:07:24.457Z,17.60
2017-11-19T01:09:27.104Z,12.80
2017-11-19T01:11:29.779Z,16.90
2017-11-19T01:13:32.499Z,14.73
2017-11-19T01:15:35.157Z,13.00
2017-11-19T01:17:37.803Z,17.00
2017-11-19T01:19:40.510Z,12.17
2017-11-19T01:21:43.153Z,17.60
2017-11-19T01:23:46.579Z,14.47
2017-11-19T01:25:49.260Z,12.17
2017-11-19T01:27:51.894Z,25.53
2017-11-19T01:29:55.320Z,15.33
2017-11-19T01:31:58.019Z,15.37
2017-11-19T01:34:00.708Z,13.93
2017-11-19T01:36:03.381Z,18.13
2017-11-19T01:38:06.116Z,18.93
2017-11-19T01:40:08.776Z,14.83
2017-11-19T01:42:12.414Z,14.80
2017-11-19T01:44:15.105Z,18.67
2017-11-19T01:46:17.773Z,18.77
2017-11-19T01:48:20.715Z,13.63
2017-11-19T01:50:23.438Z,20.10
2017-11-19T01:52:26.108Z,18.20
2017-11-19T01:54:28.804Z,19.83
2017-11-19T01:56:31.470Z,15.53
2017-11-19T01:58:34.121Z,18.27
2017-11-19T02:00:36.817Z,25.10
2017-11-19T02:02:39.527Z,24.07
2017-11-19T02:04:42.972Z,34.63
2017-11-19T02:06:45.805Z,20.17
2017-11-19T02:08:49.492Z,21.07
2017-11-19T02:10:52.143Z,22.33
2017-11-19T02:12:54.820Z,28.33
2017-11-19T02:14:57.677Z,20.90
2017-11-19T02:17:00.340Z,16.23
2017-11-19T02:19:03.041Z,22.00
2017-11-19T02:21:05.740Z,24.00
2017-11-19T02:23:08.431Z,23.97
2017-11-19T02:25:11.853Z,20.20
2017-11-19T02:27:14.511Z,16.40
2017-11-19T02:29:17.975Z,22.50
2017-11-19T02:31:20.653Z,17.80
2017-11-19T02:33:23.328Z,21.40
2017-11-19T02:35:26.218Z,15.40
2017-11-19T02:37:28.903Z,16.80
2017-11-19T02:39:31.557Z,11.43
2017-11-19T02:41:34.253Z,12.60
2017-11-19T02:43:36.910Z,18.70
2017-11-19T02:45:39.559Z,20.93
2017-11-19T02:47:42.254Z,15.37
2017-11-19T02:49:44.934Z,10.20
2017-11-19T02:51:47.599Z,15.43
2017-11-19T02:53:50.297Z,22.73
2017-11-19T02:55:52.939Z,16.27
2017-11-19T02:57:55.720Z,18.60
2017-11-19T02:59:58.382Z,17.60
2017-11-19T03:02:01.040Z,19.20
2017-11-19T03:04:03.729Z,21.17
2017-11-19T03:06:06.426Z,22.07
2017-11-19T03:08:09.108Z,18.77
2017-11-19T03:10:11.769Z,20.03
2017-11-19T03:12:14.548Z,18.03
2017-11-19T03:14:17.338Z,22.03
2017-11-19T03:16:20.761Z,14.23
2017-11-19T03:18:23.524Z,14.00
2017-11-19T03:20:26.376Z,10.73
2017-11-19T03:22:29.058Z,12.90
2017-11-19T03:24:31.749Z,11.03
2017-11-19T03:26:34.402Z,20.27
2017-11-19T03:28:37.082Z,11.93
2017-11-19T03:30:39.753Z,12.83
2017-11-19T03:32:42.437Z,11.47
2017-11-19T03:34:45.112Z,16.63
2017-11-19T03:36:47.791Z,12.50
2017-11-19T03:38:50.448Z,13.10
2017-11-19T03:40:53.134Z,13.47
2017-11-19T03:42:55.817Z,12.27
2017-11-19T03:44:58.459Z,9.80
2017-11-19T03:47:01.893Z,11.90
2017-11-19T03:49:04.573Z,12.63
2017-11-19T03:51:07.267Z,13.33
2017-11-19T03:53:09.933Z,18.73
2017-11-19T03:55:12.585Z,11.30
2017-11-19T03:57:15.215Z,10.67
2017-11-19T03:59:17.868Z,16.60
2017-11-19T04:01:20.529Z,13.47
2017-11-19T04:03:23.177Z,18.27
2017-11-19T04:05:25.885Z,14.83
2017-11-19T04:07:28.540Z,12.60
2017-11-19T04:09:31.334Z,10.10
2017-11-19T04:11:34.002Z,12.53
2017-11-19T04:13:36.713Z,15.33
2017-11-19T04:15:39.337Z,9.20
2017-11-19T04:17:42.004Z,15.00
2017-11-19T04:19:44.670Z,11.60
2017-11-19T04:21:48.203Z,9.40
2017-11-19T04:23:50.876Z,14.23
2017-11-19T04:25:53.561Z,12.03
2017-11-19T04:27:56.248Z,18.20
2017-11-19T04:29:58.926Z,16.80
2017-11-19T04:32:01.682Z,6.60
2017-11-19T04:34:04.405Z,16.33
2017-11-19T04:36:07.255Z,12.03
2017-11-19T04:38:09.918Z,13.57
2017-11-19T04:40:12.622Z,13.80
2017-11-19T04:42:15.345Z,15.83
2017-11-19T04:44:18.775Z,16.67
2017-11-19T04:46:21.477Z,19.77
2017-11-19T04:48:24.127Z,15.07
2017-11-19T04:50:26.841Z,12.97
2017-11-19T04:52:29.497Z,16.10
2017-11-19T04:54:32.149Z,10.43
2017-11-19T04:56:34.793Z,8.00
2017-11-19T04:58:38.387Z,16.70
2017-11-19T05:00:41.791Z,10.73
2017-11-19T05:02:44.443Z,21.67
2017-11-19T05:04:48.001Z,17.60
2017-11-19T05:06:50.657Z,18.43
2017-11-19T05:08:53.335Z,13.00
2017-11-19T05:10:56.009Z,17.53
2017-11-19T05:12:58.683Z,13.07
2017-11-19T05:15:01.369Z,10.73
2017-11-19T05:17:04.106Z,16.77
2017-11-19T05:19:07.525Z,8.03
2017-11-19T05:21:10.308Z,9.17
2017-11-19T05:23:12.947Z,16.03
2017-11-19T05:42:32.789Z,13.80
2017-11-19T05:44:35.464Z,14.33
2017-11-19T05:46:38.141Z,10.17
2017-11-19T05:48:40.801Z,14.47
2017-11-19T06:08:01.592Z,16.50
2017-11-19T06:10:05.039Z,16.70
2017-11-19T06:12:07.681Z,15.93
2017-11-19T06:31:29.869Z,11.50
2017-11-19T06:33:32.516Z,12.23
2017-11-19T06:35:35.181Z,11.00
2017-11-19T06:37:37.835Z,13.67
2017-11-19T06:57:08.210Z,16.73
2017-11-19T06:59:10.870Z,27.00
2017-11-19T07:01:13.555Z,14.10
2017-11-19T07:03:16.247Z,7.10
2017-11-19T07:22:37.333Z,13.30
2017-11-19T07:24:40.150Z,14.37
2017-11-19T07:26:42.929Z,12.73
2017-11-19T07:28:45.593Z,8.67
2017-11-19T07:30:48.570Z,9.90
2017-11-19T07:32:51.247Z,9.40
2017-11-19T07:34:53.933Z,9.37
2017-11-19T07:36:56.611Z,14.20
2017-11-19T07:38:59.385Z,16.80
2017-11-19T07:41:02.118Z,15.53
2017-11-19T07:43:05.632Z,8.90
2017-11-19T07:45:08.295Z,22.50
2017-11-19T07:47:11.772Z,20.63
2017-11-19T07:49:15.349Z,18.87
2017-11-19T07:51:18.079Z,7.60
2017-11-19T07:53:20.765Z,14.03
2017-11-19T07:55:24.352Z,9.80
2017-11-19T07:57:27.027Z,16.10
2017-11-19T07:59:29.720Z,12.00
2017-11-19T08:01:32.386Z,17.73
2017-11-19T08:03:35.822Z,17.87
2017-11-19T08:05:38.625Z,9.80
2017-11-19T08:07:41.303Z,12.10
2017-11-19T08:09:43.960Z,9.00
2017-11-19T08:11:46.641Z,12.83
2017-11-19T08:13:49.317Z,15.10
2017-11-19T08:15:51.973Z,12.23
2017-11-19T08:17:54.875Z,61.70
2017-11-19T08:19:57.546Z,90.83
2017-11-19T08:22:00.257Z,53.07
2017-11-19T08:24:03.721Z,29.27
2017-11-19T08:26:06.398Z,25.33
2017-11-19T08:28:09.046Z,29.00
2017-11-19T08:30:13.203Z,23.70
2017-11-19T08:32:16.822Z,18.63
2017-11-19T08:34:19.496Z,12.63
2017-11-19T08:36:22.154Z,9.90
2017-11-19T08:38:25.575Z,13.27
2017-11-19T08:40:28.223Z,13.90
2017-11-19T08:42:31.756Z,16.00
2017-11-19T08:44:34.541Z,14.77
2017-11-19T08:46:37.201Z,13.77
2017-11-19T08:48:39.882Z,14.47
2017-11-19T08:50:42.698Z,13.60
2017-11-19T08:52:45.440Z,20.13
2017-11-19T08:54:48.113Z,9.60
2017-11-19T08:56:50.773Z,12.60
2017-11-19T08:58:53.472Z,8.17
2017-11-19T09:00:56.170Z,11.67
2017-11-19T09:02:58.851Z,9.93
2017-11-19T09:05:01.497Z,12.83
2017-11-19T09:07:04.217Z,15.77
2017-11-19T09:09:06.870Z,13.60
2017-11-19T09:11:09.659Z,15.20
2017-11-19T09:13:12.564Z,9.63
2017-11-19T09:15:15.237Z,8.27
2017-11-19T09:17:18.019Z,11.63
2017-11-19T09:19:20.697Z,12.87
2017-11-19T09:21:23.374Z,8.43
2017-11-19T09:23:26.781Z,16.10
2017-11-19T09:25:30.318Z,18.33
2017-11-19T09:27:33.082Z,9.57
2017-11-19T09:29:36.612Z,13.60
2017-11-19T09:31:39.291Z,13.77
2017-11-19T09:33:41.939Z,10.20
2017-11-19T09:35:44.731Z,12.10
2017-11-19T09:37:48.420Z,13.93
2017-11-19T09:39:51.071Z,10.33
2017-11-19T09:41:53.758Z,17.17
2017-11-19T09:43:56.414Z,10.60
2017-11-19T09:45:59.081Z,12.30
2017-11-19T09:48:02.541Z,10.40
2017-11-19T09:50:05.329Z,11.47
2017-11-19T09:52:07.966Z,13.07
2017-11-19T09:54:10.661Z,12.70
2017-11-19T09:56:13.323Z,13.67
2017-11-19T09:58:16.199Z,10.40
2017-11-19T10:00:18.878Z,17.73
2017-11-19T10:02:21.538Z,23.00
2017-11-19T10:04:24.201Z,6.67
2017-11-19T10:06:26.876Z,14.17
2017-11-19T10:08:29.525Z,11.53
2017-11-19T10:10:32.372Z,18.03
2017-11-19T10:12:35.236Z,14.37
2017-11-19T10:14:38.041Z,16.40
2017-11-19T10:16:40.807Z,13.20
2017-11-19T10:18:44.064Z,15.10
2017-11-19T10:20:46.725Z,13.13
2017-11-19T10:22:50.182Z,19.77
2017-11-19T10:24:52.836Z,17.10
2017-11-19T10:26:55.624Z,11.63
2017-11-19T10:28:58.329Z,10.50
2017-11-19T10:31:01.022Z,14.80
2017-11-19T10:33:04.755Z,15.30
2017-11-19T10:35:07.407Z,22.43
2017-11-19T10:37:10.084Z,17.70
2017-11-19T10:39:12.776Z,10.33
2017-11-19T10:41:15.437Z,11.70
2017-11-19T10:43:19.331Z,10.20
2017-11-19T10:45:22.803Z,10.40
2017-11-19T10:47:25.500Z,15.70
2017-11-19T10:49:28.170Z,8.80
2017-11-19T10:51:31.615Z,16.03
2017-11-19T10:53:34.274Z,10.73
2017-11-19T10:55:36.941Z,15.30
2017-11-19T10:57:39.633Z,15.07
2017-11-19T10:59:42.282Z,18.10
2017-11-19T11:01:45.712Z,20.93
2017-11-19T11:03:48.399Z,20.07
2017-11-19T11:05:51.154Z,19.53
2017-11-19T11:07:53.853Z,18.17
2017-11-19T11:09:56.552Z,14.00
2017-11-19T11:11:59.209Z,25.37
2017-11-19T11:14:01.875Z,20.10
2017-11-19T11:16:04.544Z,18.33
2017-11-19T11:18:07.187Z,17.80
2017-11-19T11:20:10.608Z,18.03
2017-11-19T11:22:13.294Z,19.13
2017-11-19T11:24:16.069Z,14.97
2017-11-19T11:26:18.725Z,18.67
2017-11-19T11:28:21.447Z,22.30
2017-11-19T11:30:24.126Z,14.40
2017-11-19T11:32:26.806Z,13.80
2017-11-19T11:34:29.466Z,14.77
2017-11-19T11:36:32.134Z,12.03
2017-11-19T11:38:34.782Z,19.97
2017-11-19T11:40:37.569Z,12.53
2017-11-19T11:42:40.225Z,14.93
2017-11-19T11:44:42.891Z,16.77
2017-11-19T11:46:46.351Z,17.10
2017-11-19T11:48:49.070Z,19.93
2017-11-19T11:50:51.727Z,16.03
2017-11-19T11:52:55.210Z,18.43
2017-11-19T11:54:57.911Z,19.77
2017-11-19T11:57:01.375Z,31.60
2017-11-19T11:59:04.075Z,22.13
2017-11-19T12:01:07.505Z,16.10
2017-11-19T12:03:10.166Z,22.57
2017-11-19T12:05:12.850Z,15.93
2017-11-19T12:07:15.497Z,16.50
2017-11-19T12:09:18.945Z,20.57
2017-11-19T12:11:22.429Z,20.93
2017-11-19T12:13:25.238Z,17.57
2017-11-19T12:15:27.919Z,27.77
2017-11-19T12:17:30.642Z,28.27
2017-11-19T12:19:33.323Z,18.97
2017-11-19T12:21:36.113Z,19.50
2017-11-19T12:23:38.974Z,17.23
2017-11-19T12:25:41.692Z,22.70
2017-11-19T12:27:44.432Z,16.63
2017-11-19T12:29:47.210Z,16.63
2017-11-19T12:31:50.056Z,19.40
2017-11-19T12:33:53.512Z,16.43
2017-11-19T12:35:56.579Z,12.27
2017-11-19T12:37:59.263Z,24.27
2017-11-19T12:40:01.964Z,15.90
2017-11-19T12:42:04.619Z,17.40
2017-11-19T12:44:07.262Z,14.83
2017-11-19T12:46:10.062Z,15.07
2017-11-19T12:48:12.718Z,17.37
2017-11-19T12:50:15.384Z,16.83
2017-11-19T12:52:19.112Z,15.17
2017-11-19T12:54:21.875Z,16.37
2017-11-19T12:56:24.547Z,16.73
2017-11-19T12:58:27.230Z,13.07
2017-11-19T13:00:30.019Z,19.83
2017-11-19T13:02:32.787Z,14.30
2017-11-19T13:04:35.507Z,18.13
2017-11-19T13:06:38.168Z,20.60
2017-11-19T13:08:40.865Z,16.50
2017-11-19T13:10:43.743Z,18.07
2017-11-19T13:12:46.490Z,23.00
2017-11-19T13:14:49.139Z,16.43
2017-11-19T13:16:52.670Z,26.10
2017-11-19T13:18:55.362Z,23.33
2017-11-19T13:20:58.202Z,26.33
2017-11-19T13:23:00.912Z,48.37
2017-11-19T13:25:03.666Z,38.30
2017-11-19T13:27:06.311Z,62.97
2017-11-19T13:29:09.765Z,12.57
2017-11-19T13:31:12.518Z,15.53
2017-11-19T13:33:15.447Z,15.70
2017-11-19T13:35:18.142Z,9.37
2017-11-19T13:37:21.655Z,13.87
2017-11-19T13:39:24.668Z,18.57
2017-11-19T13:41:27.745Z,15.97
2017-11-19T13:43:30.541Z,20.43
2017-11-19T13:45:34.670Z,15.40
2017-11-19T13:47:37.710Z,13.27
2017-11-19T13:49:40.373Z,16.13
2017-11-19T13:51:43.027Z,15.30
2017-11-19T13:53:46.500Z,14.70
2017-11-19T13:55:49.146Z,15.50
2017-11-19T13:57:51.810Z,22.33
2017-11-19T13:59:54.695Z,15.60
2017-11-19T14:01:57.366Z,8.73
2017-11-19T14:04:00.037Z,17.23
2017-11-19T14:06:02.696Z,14.03
2017-11-19T14:08:06.119Z,12.90
2017-11-19T14:10:08.805Z,14.87
2017-11-19T14:12:11.486Z,14.97
2017-11-19T14:14:14.163Z,21.60
2017-11-19T14:16:16.860Z,16.37
2017-11-19T14:18:19.520Z,16.87
2017-11-19T14:20:22.206Z,27.43
2017-11-19T14:22:24.952Z,9.10
2017-11-19T14:24:27.609Z,18.93
2017-11-19T14:26:30.316Z,15.17
2017-11-19T14:28:33.019Z,15.17
2017-11-19T14:30:35.774Z,15.47
2017-11-19T14:32:38.424Z,12.90
2017-11-19T14:34:41.114Z,19.17
2017-11-19T14:36:43.904Z,14.83
2017-11-19T14:38:46.581Z,19.10
2017-11-19T14:40:49.397Z,14.97
2017-11-19T14:42:53.254Z,25.33
2017-11-19T14:44:55.918Z,27.93
2017-11-19T14:46:58.600Z,14.67
2017-11-19T14:49:01.384Z,21.30
2017-11-19T14:51:04.028Z,19.43
2017-11-19T14:53:07.472Z,16.43
2017-11-19T14:55:10.153Z,22.53
2017-11-19T14:57:12.855Z,20.53
2017-11-19T14:59:15.545Z,15.83
2017-11-19T15:01:19.008Z,18.83
2017-11-19T15:03:21.678Z,15.90
2017-11-19T15:05:24.355Z,18.50
2017-11-19T15:07:27.024Z,17.23
2017-11-19T15:09:29.689Z,8.80
2017-11-19T15:11:32.357Z,5.17
2017-11-19T15:13:35.022Z,16.53
2017-11-19T15:15:37.802Z,10.63
2017-11-19T15:17:40.481Z,14.03
2017-11-19T15:19:43.153Z,12.97
2017-11-19T15:21:45.848Z,8.70
2017-11-19T15:23:48.637Z,11.53
2017-11-19T15:25:51.314Z,7.97
2017-11-19T15:27:53.979Z,10.33
2017-11-19T15:29:56.662Z,13.77
2017-11-19T15:31:59.315Z,4.60
2017-11-19T15:34:02.572Z,7.93
2017-11-19T15:36:05.238Z,11.47
2017-11-19T15:38:07.901Z,7.43
2017-11-19T15:40:10.671Z,6.77
2017-11-19T15:42:13.334Z,9.83
2017-11-19T15:44:16.102Z,6.37
2017-11-19T15:46:18.806Z,4.70
2017-11-19T15:48:21.484Z,5.13
2017-11-19T15:50:24.170Z,8.87
2017-11-19T15:52:26.833Z,3.77
2017-11-19T15:54:29.513Z,8.47
2017-11-19T15:56:32.200Z,30.43
2017-11-19T15:58:35.208Z,49.27
2017-11-19T16:00:38.716Z,42.77
2017-11-19T16:02:41.368Z,46.03
2017-11-19T16:04:44.813Z,44.50
2017-11-19T16:06:47.541Z,32.33
2017-11-19T16:08:51.212Z,79.87
2017-11-19T16:10:55.812Z,100.43
2017-11-19T16:12:58.490Z,32.07
2017-11-19T16:15:01.268Z,11.37
2017-11-19T16:17:03.927Z,14.90
2017-11-19T16:19:06.588Z,26.43
2017-11-19T16:21:09.278Z,27.73
2017-11-19T16:23:11.953Z,34.27
2017-11-19T16:25:14.646Z,26.70
2017-11-19T16:27:17.307Z,34.30
2017-11-19T16:29:19.990Z,37.20
2017-11-19T16:31:22.801Z,64.53
2017-11-19T16:33:25.540Z,94.43
2017-11-19T16:35:28.319Z,209.23
2017-11-19T16:37:31.103Z,58.20
2017-11-19T16:39:33.764Z,67.80
2017-11-19T16:41:36.577Z,32.77
2017-11-19T16:43:39.800Z,11.73
2017-11-19T16:45:42.548Z,17.87
2017-11-19T16:47:45.400Z,18.17
2017-11-19T16:49:48.209Z,14.27
2017-11-19T16:51:50.896Z,14.20
2017-11-19T16:53:53.551Z,12.30
2017-11-19T16:55:56.318Z,20.57
2017-11-19T16:57:58.974Z,18.97
2017-11-19T17:00:01.638Z,22.87
2017-11-19T17:02:05.091Z,30.00
2017-11-19T17:04:07.817Z,12.90
2017-11-19T17:06:10.486Z,12.67
2017-11-19T17:08:13.912Z,15.20
2017-11-19T17:10:16.574Z,12.70
2017-11-19T17:12:19.248Z,25.57
2017-11-19T17:14:21.896Z,14.33
2017-11-19T17:16:25.351Z,19.20
2017-11-19T17:18:28.004Z,17.77
2017-11-19T17:20:30.882Z,23.10
2017-11-19T17:22:33.570Z,27.73
2017-11-19T17:24:36.455Z,17.07
2017-11-19T17:26:39.132Z,16.67
2017-11-19T17:28:41.819Z,20.00
2017-11-19T17:30:44.471Z,18.20
2017-11-19T17:32:47.261Z,28.73
2017-11-19T17:34:49.941Z,22.73
2017-11-19T17:36:52.626Z,21.80
2017-11-19T17:38:55.283Z,22.40
2017-11-19T17:40:57.934Z,19.53
2017-11-19T17:43:00.637Z,17.07
2017-11-19T17:45:03.334Z,22.87
2017-11-19T17:47:06.007Z,28.13
2017-11-19T17:49:08.673Z,14.90
2017-11-19T17:51:11.331Z,24.03
2017-11-19T17:53:14.074Z,20.43
2017-11-19T17:55:16.745Z,20.10
2017-11-19T17:57:20.185Z,20.97
2017-11-19T17:59:22.981Z,15.87
2017-11-19T18:01:25.644Z,21.73
2017-11-19T18:03:28.304Z,20.03
2017-11-19T18:05:30.986Z,23.17
2017-11-19T18:07:33.653Z,13.50
2017-11-19T18:09:36.354Z,22.90
2017-11-19T18:11:39.220Z,18.40
2017-11-19T18:13:41.871Z,19.80
2017-11-19T18:15:44.543Z,23.93
2017-11-19T18:17:48.349Z,30.77
2017-11-19T18:19:51.025Z,28.77
2017-11-19T18:21:53.823Z,19.03
2017-11-19T18:23:56.605Z,19.20
2017-11-19T18:25:59.272Z,20.63
2017-11-19T18:28:02.197Z,16.77
2017-11-19T18:30:04.850Z,26.37
2017-11-19T18:32:07.530Z,29.43
2017-11-19T18:34:10.196Z,20.40
2017-11-19T18:36:12.843Z,21.37
2017-11-19T18:38:15.670Z,18.83
2017-11-19T18:40:18.524Z,17.00
2017-11-19T18:42:21.174Z,17.50
2017-11-19T18:44:24.669Z,20.37
2017-11-19T18:46:28.100Z,18.30
2017-11-19T18:48:30.944Z,26.37
2017-11-19T18:50:33.602Z,20.60
2017-11-19T18:52:36.327Z,21.67
2017-11-19T18:54:38.998Z,20.43
2017-11-19T18:56:41.651Z,11.13
2017-11-19T18:58:45.129Z,26.47
2017-11-19T19:00:48.677Z,26.60
2017-11-19T19:02:51.338Z,22.13
2017-11-19T19:04:54.036Z,22.70
2017-11-19T19:06:56.679Z,15.83
2017-11-19T19:08:59.478Z,22.17
2017-11-19T19:11:02.253Z,16.30
2017-11-19T19:13:04.914Z,15.77
2017-11-19T19:15:07.785Z,22.90
2017-11-19T19:17:10.479Z,21.97
2017-11-19T19:19:13.162Z,25.03
2017-11-19T19:21:15.818Z,16.03
2017-11-19T19:23:18.475Z,28.83
2017-11-19T19:25:23.544Z,19.53
2017-11-19T19:27:26.237Z,45.03
2017-11-19T19:29:29.736Z,41.30
2017-11-19T19:31:32.479Z,30.10
2017-11-19T19:33:35.507Z,26.40
2017-11-19T19:35:38.307Z,28.80
2017-11-19T19:37:41.344Z,22.47
2017-11-19T19:39:43.991Z,19.53
2017-11-19T19:41:47.440Z,28.07
2017-11-19T19:43:51.009Z,36.57
2017-11-19T19:45:53.695Z,17.53
2017-11-19T19:47:57.400Z,22.67
2017-11-19T19:50:00.085Z,35.30
2017-11-19T19:52:02.991Z,28.57
2017-11-19T19:54:06.738Z,49.43
2017-11-19T19:56:09.415Z,29.33
2017-11-19T19:58:12.112Z,42.97
2017-11-19T20:00:15.547Z,50.27
2017-11-19T20:02:18.218Z,41.63
2017-11-19T20:04:21.526Z,25.80
2017-11-19T20:06:25.129Z,41.03
2017-11-19T20:08:29.111Z,33.83
2017-11-19T20:10:31.791Z,29.60
2017-11-19T20:12:34.767Z,46.33
2017-11-19T20:14:38.329Z,24.77
2017-11-19T20:16:41.257Z,32.93
2017-11-19T20:18:45.117Z,35.93
2017-11-19T20:20:49.871Z,36.37
2017-11-19T20:22:52.641Z,62.70
2017-11-19T20:24:55.321Z,39.27
2017-11-19T20:26:58.004Z,33.77
2017-11-19T20:29:00.650Z,38.97
2017-11-19T20:31:03.330Z,31.40
2017-11-19T20:33:07.140Z,27.27
2017-11-19T20:35:09.939Z,23.10
2017-11-19T20:37:12.628Z,27.70
2017-11-19T20:39:16.058Z,36.93
2017-11-19T20:41:18.745Z,31.67
2017-11-19T20:43:21.597Z,32.10
2017-11-19T20:45:24.896Z,26.10
2017-11-19T20:47:27.594Z,24.17
2017-11-19T20:49:30.379Z,31.53
2017-11-19T20:51:33.137Z,22.53
2017-11-19T20:53:35.953Z,38.93
2017-11-19T20:55:38.610Z,37.17
2017-11-19T20:57:41.480Z,26.37
2017-11-19T20:59:44.167Z,42.63
2017-11-19T21:01:46.910Z,24.20
2017-11-19T21:03:50.353Z,36.13
2017-11-19T21:05:53.264Z,28.33
2017-11-19T21:07:56.872Z,28.97
2017-11-19T21:10:00.328Z,26.83
2017-11-19T21:12:02.975Z,32.07
2017-11-19T21:14:05.652Z,19.33
2017-11-19T21:16:08.416Z,19.97
2017-11-19T21:18:11.064Z,16.33
2017-11-19T21:20:13.771Z,16.23
2017-11-19T21:22:16.440Z,19.30
2017-11-19T21:24:19.083Z,19.40
2017-11-19T21:26:21.768Z,17.30
2017-11-19T21:28:24.472Z,22.10
2017-11-19T21:30:27.155Z,20.40
2017-11-19T21:32:29.882Z,19.37
2017-11-19T21:34:32.532Z,24.47
2017-11-19T21:36:35.204Z,19.90
2017-11-19T21:38:37.866Z,22.80
2017-11-19T21:40:40.502Z,24.10
2017-11-19T21:42:43.945Z,21.80
2017-11-19T21:44:46.603Z,23.03
2017-11-19T21:46:49.324Z,22.17
2017-11-19T21:48:52.013Z,23.47
2017-11-19T21:50:54.664Z,21.80
2017-11-19T21:52:57.320Z,17.93
2017-11-19T21:55:00.093Z,17.87
2017-11-19T21:57:02.751Z,24.43
2017-11-19T21:59:05.538Z,17.47
2017-11-19T22:01:08.231Z,22.07
2017-11-19T22:03:10.878Z,21.17
2017-11-19T22:05:14.297Z,19.03
2017-11-19T22:07:17.073Z,21.10
2017-11-19T22:09:19.736Z,24.33
2017-11-19T22:11:23.262Z,27.20
2017-11-19T22:13:25.946Z,19.73
2017-11-19T22:15:28.599Z,29.80
2017-11-19T22:17:31.308Z,24.37
2017-11-19T22:19:33.954Z,30.47
2017-11-19T22:21:36.620Z,31.90
2017-11-19T22:23:39.308Z,38.90
2017-11-19T22:25:41.977Z,28.33
2017-11-19T22:27:44.654Z,26.77
2017-11-19T22:29:47.366Z,33.40
2017-11-19T22:31:50.102Z,38.00
2017-11-19T22:33:52.786Z,24.30
2017-11-19T22:35:55.484Z,23.00
2017-11-19T22:37:58.140Z,27.20
2017-11-19T22:40:01.230Z,30.00
2017-11-19T22:42:03.896Z,27.90
2017-11-19T22:44:06.567Z,29.20
2017-11-19T22:46:09.246Z,19.77
2017-11-19T22:48:11.885Z,34.80
2017-11-19T22:50:14.533Z,28.37
2017-11-19T22:52:17.398Z,20.90
2017-11-19T22:54:20.087Z,18.60
2017-11-19T22:56:22.722Z,28.03
2017-11-19T22:58:25.457Z,18.20
2017-11-19T23:00:28.287Z,26.67
2017-11-19T23:02:30.951Z,25.97
2017-11-19T23:04:33.652Z,24.00
2017-11-19T23:06:36.293Z,29.90
2017-11-19T23:08:39.719Z,15.13
2017-11-19T23:10:42.401Z,17.87
2017-11-19T23:12:45.164Z,20.50
2017-11-19T23:14:47.941Z,26.30
2017-11-19T23:16:50.592Z,16.70
2017-11-19T23:18:54.002Z,23.33
2017-11-19T23:20:56.682Z,16.23
2017-11-19T23:22:59.321Z,26.00
2017-11-19T23:25:01.960Z,29.43
2017-11-19T23:27:04.644Z,17.60
2017-11-19T23:29:07.294Z,22.40
2017-11-19T23:31:10.068Z,23.30
2017-11-19T23:33:12.776Z,26.10
2017-11-19T23:35:15.409Z,32.70
2017-11-19T23:37:18.052Z,25.93
2017-11-19T23:39:20.770Z,20.03
2017-11-19T23:41:23.451Z,28.67
2017-11-19T23:43:26.090Z,31.53
2017-11-19T23:45:29.559Z,29.23
2017-11-19T23:47:32.207Z,21.23
2017-11-19T23:49:34.850Z,28.43
2017-11-19T23:51:37.536Z,23.90
2017-11-19T23:53:40.200Z,27.97
2017-11-19T23:55:43.817Z,30.87
2017-11-19T23:57:46.597Z,21.50
2017-11-19T23:59:49.258Z,31.73
